sensor_id;sensor_type;location;lat;lon;timestamp;P1;durP1;ratioP1;P2;durP2;ratioP2
2892;SDS011;1456;51.840;12.184;2023-04-24T00:01:20;0.50;;;0.50;;
2892;SDS011;1456;51.840;12.184;2023-04-24T00:03:46;1.23;;;1.13;;
2892;SDS011;1456;51.840;12.184;2023-04-24T00:06:11;0.60;;;0.47;;
2892;SDS011;1456;51.840;12.184;2023-04-24T00:08:39;0.70;;;0.50;;
2892;SDS011;1456;51.840;12.184;2023-04-24T00:11:06;0.50;;;0.40;;
2892;SDS011;1456;51.840;12.184;2023-04-24T00:13:32;0.50;;;0.50;;
2892;SDS011;1456;51.840;12.184;2023-04-24T00:15:57;0.30;;;0.30;;
2892;SDS011;1456;51.840;12.184;2023-04-24T00:18:23;0.83;;;0.83;;
2892;SDS011;1456;51.840;12.184;2023-04-24T00:20:50;0.60;;;0.30;;
2892;SDS011;1456;51.840;12.184;2023-04-24T00:23:16;0.30;;;0.30;;
2892;SDS011;1456;51.840;12.184;2023-04-24T00:25:46;0.30;;;0.20;;
2892;SDS011;1456;51.840;12.184;2023-04-24T00:28:13;0.30;;;0.30;;
2892;SDS011;1456;51.840;12.184;2023-04-24T00:30:38;0.80;;;0.67;;
2892;SDS011;1456;51.840;12.184;2023-04-24T00:33:04;0.53;;;0.53;;
2892;SDS011;1456;51.840;12.184;2023-04-24T00:35:30;0.40;;;0.37;;
2892;SDS011;1456;51.840;12.184;2023-04-24T00:37:56;0.70;;;0.70;;
2892;SDS011;1456;51.840;12.184;2023-04-24T00:40:23;0.70;;;0.40;;
2892;SDS011;1456;51.840;12.184;2023-04-24T00:42:48;0.30;;;0.30;;
2892;SDS011;1456;51.840;12.184;2023-04-24T00:45:15;0.40;;;0.30;;
2892;SDS011;1456;51.840;12.184;2023-04-24T00:47:43;0.30;;;0.20;;
2892;SDS011;1456;51.840;12.184;2023-04-24T00:50:10;0.40;;;0.30;;
2892;SDS011;1456;51.840;12.184;2023-04-24T00:52:38;0.30;;;0.30;;
2892;SDS011;1456;51.840;12.184;2023-04-24T00:55:05;0.30;;;0.30;;
2892;SDS011;1456;51.840;12.184;2023-04-24T00:57:32;0.40;;;0.30;;
2892;SDS011;1456;51.840;12.184;2023-04-24T00:59:59;0.40;;;0.20;;
2892;SDS011;1456;51.840;12.184;2023-04-24T01:02:24;0.30;;;0.30;;
2892;SDS011;1456;51.840;12.184;2023-04-24T01:04:52;0.40;;;0.20;;
2892;SDS011;1456;51.840;12.184;2023-04-24T01:07:19;0.30;;;0.30;;
2892;SDS011;1456;51.840;12.184;2023-04-24T01:09:46;0.30;;;0.20;;
2892;SDS011;1456;51.840;12.184;2023-04-24T01:12:14;0.33;;;0.33;;
2892;SDS011;1456;51.840;12.184;2023-04-24T01:14:40;0.30;;;0.20;;
2892;SDS011;1456;51.840;12.184;2023-04-24T01:17:06;0.30;;;0.20;;
2892;SDS011;1456;51.840;12.184;2023-04-24T01:19:32;0.30;;;0.20;;
2892;SDS011;1456;51.840;12.184;2023-04-24T01:22:00;0.30;;;0.20;;
2892;SDS011;1456;51.840;12.184;2023-04-24T01:24:28;0.30;;;0.20;;
2892;SDS011;1456;51.840;12.184;2023-04-24T01:26:54;0.30;;;0.20;;
2892;SDS011;1456;51.840;12.184;2023-04-24T01:29:21;0.30;;;0.23;;
2892;SDS011;1456;51.840;12.184;2023-04-24T01:31:46;0.30;;;0.30;;
2892;SDS011;1456;51.840;12.184;2023-04-24T01:34:12;0.70;;;0.70;;
2892;SDS011;1456;51.840;12.184;2023-04-24T01:36:42;0.30;;;0.20;;
2892;SDS011;1456;51.840;12.184;2023-04-24T01:39:11;0.50;;;0.43;;
2892;SDS011;1456;51.840;12.184;2023-04-24T01:41:37;0.37;;;0.37;;
2892;SDS011;1456;51.840;12.184;2023-04-24T01:44:09;0.40;;;0.20;;
2892;SDS011;1456;51.840;12.184;2023-04-24T01:46:35;0.30;;;0.20;;
2892;SDS011;1456;51.840;12.184;2023-04-24T01:49:01;0.57;;;0.40;;
2892;SDS011;1456;51.840;12.184;2023-04-24T01:51:27;0.33;;;0.23;;
2892;SDS011;1456;51.840;12.184;2023-04-24T01:53:53;0.40;;;0.30;;
2892;SDS011;1456;51.840;12.184;2023-04-24T01:56:22;0.57;;;0.40;;
2892;SDS011;1456;51.840;12.184;2023-04-24T02:01:18;0.90;;;0.27;;
2892;SDS011;1456;51.840;12.184;2023-04-24T02:03:48;0.40;;;0.20;;
2892;SDS011;1456;51.840;12.184;2023-04-24T02:06:13;0.70;;;0.30;;
2892;SDS011;1456;51.840;12.184;2023-04-24T02:08:41;0.33;;;0.30;;
2892;SDS011;1456;51.840;12.184;2023-04-24T02:11:10;1.63;;;0.60;;
2892;SDS011;1456;51.840;12.184;2023-04-24T02:13:37;0.30;;;0.20;;
2892;SDS011;1456;51.840;12.184;2023-04-24T02:16:03;0.30;;;0.23;;
2892;SDS011;1456;51.840;12.184;2023-04-24T02:18:29;0.30;;;0.20;;
2892;SDS011;1456;51.840;12.184;2023-04-24T02:20:55;0.40;;;0.20;;
2892;SDS011;1456;51.840;12.184;2023-04-24T02:23:21;0.30;;;0.30;;
2892;SDS011;1456;51.840;12.184;2023-04-24T02:25:47;1.20;;;1.10;;
2892;SDS011;1456;51.840;12.184;2023-04-24T02:28:15;0.70;;;0.70;;
2892;SDS011;1456;51.840;12.184;2023-04-24T02:30:46;0.30;;;0.20;;
2892;SDS011;1456;51.840;12.184;2023-04-24T02:33:15;0.80;;;0.80;;
2892;SDS011;1456;51.840;12.184;2023-04-24T02:35:41;0.30;;;0.20;;
2892;SDS011;1456;51.840;12.184;2023-04-24T02:38:07;0.30;;;0.20;;
2892;SDS011;1456;51.840;12.184;2023-04-24T02:40:33;0.30;;;0.30;;
2892;SDS011;1456;51.840;12.184;2023-04-24T02:42:59;0.30;;;0.20;;
2892;SDS011;1456;51.840;12.184;2023-04-24T02:45:25;0.30;;;0.10;;
2892;SDS011;1456;51.840;12.184;2023-04-24T02:47:52;0.30;;;0.30;;
2892;SDS011;1456;51.840;12.184;2023-04-24T02:50:21;0.40;;;0.40;;
2892;SDS011;1456;51.840;12.184;2023-04-24T02:52:47;0.30;;;0.20;;
2892;SDS011;1456;51.840;12.184;2023-04-24T02:55:15;0.30;;;0.20;;
2892;SDS011;1456;51.840;12.184;2023-04-24T02:57:47;0.47;;;0.30;;
2892;SDS011;1456;51.840;12.184;2023-04-24T03:00:12;0.30;;;0.20;;
2892;SDS011;1456;51.840;12.184;2023-04-24T03:02:38;0.40;;;0.30;;
2892;SDS011;1456;51.840;12.184;2023-04-24T03:05:04;0.30;;;0.20;;
2892;SDS011;1456;51.840;12.184;2023-04-24T03:07:33;0.30;;;0.20;;
2892;SDS011;1456;51.840;12.184;2023-04-24T03:10:00;0.30;;;0.30;;
2892;SDS011;1456;51.840;12.184;2023-04-24T03:12:25;0.60;;;0.40;;
2892;SDS011;1456;51.840;12.184;2023-04-24T03:14:53;0.40;;;0.27;;
2892;SDS011;1456;51.840;12.184;2023-04-24T03:17:19;0.40;;;0.30;;
2892;SDS011;1456;51.840;12.184;2023-04-24T03:19:47;0.30;;;0.20;;
2892;SDS011;1456;51.840;12.184;2023-04-24T03:22:13;0.50;;;0.50;;
2892;SDS011;1456;51.840;12.184;2023-04-24T03:24:39;0.30;;;0.20;;
2892;SDS011;1456;51.840;12.184;2023-04-24T03:27:06;0.50;;;0.40;;
2892;SDS011;1456;51.840;12.184;2023-04-24T03:29:32;0.40;;;0.40;;
2892;SDS011;1456;51.840;12.184;2023-04-24T03:31:59;0.33;;;0.27;;
2892;SDS011;1456;51.840;12.184;2023-04-24T03:34:39;0.63;;;0.63;;
2892;SDS011;1456;51.840;12.184;2023-04-24T03:37:11;0.30;;;0.27;;
2892;SDS011;1456;51.840;12.184;2023-04-24T03:42:08;0.40;;;0.30;;
2892;SDS011;1456;51.840;12.184;2023-04-24T03:44:35;0.30;;;0.20;;
2892;SDS011;1456;51.840;12.184;2023-04-24T03:47:02;0.40;;;0.40;;
2892;SDS011;1456;51.840;12.184;2023-04-24T03:49:28;0.30;;;0.20;;
2892;SDS011;1456;51.840;12.184;2023-04-24T03:54:24;0.33;;;0.30;;
2892;SDS011;1456;51.840;12.184;2023-04-24T03:56:50;0.30;;;0.20;;
2892;SDS011;1456;51.840;12.184;2023-04-24T03:59:16;0.57;;;0.33;;
2892;SDS011;1456;51.840;12.184;2023-04-24T04:01:42;0.30;;;0.20;;
2892;SDS011;1456;51.840;12.184;2023-04-24T04:04:08;0.93;;;0.20;;
2892;SDS011;1456;51.840;12.184;2023-04-24T04:06:35;0.40;;;0.30;;
2892;SDS011;1456;51.840;12.184;2023-04-24T04:09:04;0.40;;;0.33;;
2892;SDS011;1456;51.840;12.184;2023-04-24T04:11:31;0.30;;;0.20;;
2892;SDS011;1456;51.840;12.184;2023-04-24T04:13:56;0.37;;;0.27;;
2892;SDS011;1456;51.840;12.184;2023-04-24T04:16:24;3.80;;;1.17;;
2892;SDS011;1456;51.840;12.184;2023-04-24T04:18:51;4.53;;;0.83;;
2892;SDS011;1456;51.840;12.184;2023-04-24T04:21:18;2.20;;;1.27;;
2892;SDS011;1456;51.840;12.184;2023-04-24T04:23:44;0.50;;;0.50;;
2892;SDS011;1456;51.840;12.184;2023-04-24T04:26:11;0.93;;;0.93;;
2892;SDS011;1456;51.840;12.184;2023-04-24T04:31:06;0.50;;;0.50;;
2892;SDS011;1456;51.840;12.184;2023-04-24T04:33:33;0.53;;;0.53;;
2892;SDS011;1456;51.840;12.184;2023-04-24T04:36:07;0.40;;;0.30;;
2892;SDS011;1456;51.840;12.184;2023-04-24T04:38:33;0.40;;;0.30;;
2892;SDS011;1456;51.840;12.184;2023-04-24T04:41:01;0.40;;;0.30;;
2892;SDS011;1456;51.840;12.184;2023-04-24T04:43:27;0.30;;;0.20;;
2892;SDS011;1456;51.840;12.184;2023-04-24T04:45:53;0.30;;;0.20;;
2892;SDS011;1456;51.840;12.184;2023-04-24T04:48:21;0.40;;;0.20;;
2892;SDS011;1456;51.840;12.184;2023-04-24T04:50:49;0.40;;;0.30;;
2892;SDS011;1456;51.840;12.184;2023-04-24T04:53:15;0.30;;;0.20;;
2892;SDS011;1456;51.840;12.184;2023-04-24T04:55:40;0.30;;;0.20;;
2892;SDS011;1456;51.840;12.184;2023-04-24T04:58:06;0.30;;;0.20;;
2892;SDS011;1456;51.840;12.184;2023-04-24T05:00:32;0.40;;;0.40;;
2892;SDS011;1456;51.840;12.184;2023-04-24T05:03:01;0.30;;;0.20;;
2892;SDS011;1456;51.840;12.184;2023-04-24T05:05:27;0.40;;;0.20;;
2892;SDS011;1456;51.840;12.184;2023-04-24T05:07:53;0.77;;;0.50;;
2892;SDS011;1456;51.840;12.184;2023-04-24T05:10:20;0.40;;;0.30;;
2892;SDS011;1456;51.840;12.184;2023-04-24T05:12:46;0.30;;;0.20;;
2892;SDS011;1456;51.840;12.184;2023-04-24T05:15:12;0.60;;;0.20;;
2892;SDS011;1456;51.840;12.184;2023-04-24T05:17:40;0.37;;;0.27;;
2892;SDS011;1456;51.840;12.184;2023-04-24T05:20:06;0.30;;;0.20;;
2892;SDS011;1456;51.840;12.184;2023-04-24T05:22:32;0.30;;;0.20;;
2892;SDS011;1456;51.840;12.184;2023-04-24T05:24:58;0.30;;;0.20;;
2892;SDS011;1456;51.840;12.184;2023-04-24T05:27:24;0.30;;;0.30;;
2892;SDS011;1456;51.840;12.184;2023-04-24T05:30:02;0.40;;;0.30;;
2892;SDS011;1456;51.840;12.184;2023-04-24T05:32:27;0.40;;;0.20;;
2892;SDS011;1456;51.840;12.184;2023-04-24T05:34:53;0.60;;;0.40;;
2892;SDS011;1456;51.840;12.184;2023-04-24T05:37:20;0.30;;;0.20;;
2892;SDS011;1456;51.840;12.184;2023-04-24T05:39:46;0.30;;;0.20;;
2892;SDS011;1456;51.840;12.184;2023-04-24T05:42:12;0.30;;;0.30;;
2892;SDS011;1456;51.840;12.184;2023-04-24T05:44:38;0.30;;;0.20;;
2892;SDS011;1456;51.840;12.184;2023-04-24T05:47:05;0.40;;;0.30;;
2892;SDS011;1456;51.840;12.184;2023-04-24T05:49:31;0.40;;;0.40;;
2892;SDS011;1456;51.840;12.184;2023-04-24T05:51:56;0.40;;;0.40;;
2892;SDS011;1456;51.840;12.184;2023-04-24T05:54:23;0.40;;;0.30;;
2892;SDS011;1456;51.840;12.184;2023-04-24T05:56:51;0.37;;;0.30;;
2892;SDS011;1456;51.840;12.184;2023-04-24T05:59:18;0.67;;;0.67;;
2892;SDS011;1456;51.840;12.184;2023-04-24T06:01:44;0.67;;;0.67;;
2892;SDS011;1456;51.840;12.184;2023-04-24T06:04:11;0.40;;;0.30;;
2892;SDS011;1456;51.840;12.184;2023-04-24T06:06:39;0.40;;;0.20;;
2892;SDS011;1456;51.840;12.184;2023-04-24T06:09:05;0.30;;;0.20;;
2892;SDS011;1456;51.840;12.184;2023-04-24T06:11:31;0.40;;;0.40;;
2892;SDS011;1456;51.840;12.184;2023-04-24T06:13:58;0.30;;;0.20;;
2892;SDS011;1456;51.840;12.184;2023-04-24T06:16:24;0.30;;;0.20;;
2892;SDS011;1456;51.840;12.184;2023-04-24T06:18:49;0.40;;;0.33;;
2892;SDS011;1456;51.840;12.184;2023-04-24T06:21:17;0.30;;;0.20;;
2892;SDS011;1456;51.840;12.184;2023-04-24T06:26:12;0.30;;;0.20;;
2892;SDS011;1456;51.840;12.184;2023-04-24T06:28:38;0.30;;;0.10;;
2892;SDS011;1456;51.840;12.184;2023-04-24T06:31:04;1.13;;;0.70;;
2892;SDS011;1456;51.840;12.184;2023-04-24T06:33:30;0.47;;;0.47;;
2892;SDS011;1456;51.840;12.184;2023-04-24T06:38:25;1.03;;;0.40;;
2892;SDS011;1456;51.840;12.184;2023-04-24T06:43:21;0.30;;;0.20;;
2892;SDS011;1456;51.840;12.184;2023-04-24T06:45:47;0.40;;;0.30;;
2892;SDS011;1456;51.840;12.184;2023-04-24T06:48:12;0.30;;;0.20;;
2892;SDS011;1456;51.840;12.184;2023-04-24T06:50:38;0.30;;;0.20;;
2892;SDS011;1456;51.840;12.184;2023-04-24T06:53:04;0.30;;;0.20;;
2892;SDS011;1456;51.840;12.184;2023-04-24T06:55:30;0.30;;;0.20;;
2892;SDS011;1456;51.840;12.184;2023-04-24T06:57:58;0.60;;;0.47;;
2892;SDS011;1456;51.840;12.184;2023-04-24T07:00:24;0.30;;;0.20;;
2892;SDS011;1456;51.840;12.184;2023-04-24T07:02:55;0.63;;;0.40;;
2892;SDS011;1456;51.840;12.184;2023-04-24T07:05:22;0.30;;;0.20;;
2892;SDS011;1456;51.840;12.184;2023-04-24T07:07:49;0.30;;;0.30;;
2892;SDS011;1456;51.840;12.184;2023-04-24T07:10:16;0.40;;;0.30;;
2892;SDS011;1456;51.840;12.184;2023-04-24T07:12:43;0.33;;;0.20;;
2892;SDS011;1456;51.840;12.184;2023-04-24T07:15:10;0.40;;;0.30;;
2892;SDS011;1456;51.840;12.184;2023-04-24T07:20:08;0.30;;;0.20;;
2892;SDS011;1456;51.840;12.184;2023-04-24T07:22:39;0.30;;;0.30;;
2892;SDS011;1456;51.840;12.184;2023-04-24T07:25:05;0.40;;;0.40;;
2892;SDS011;1456;51.840;12.184;2023-04-24T07:27:32;0.30;;;0.30;;
2892;SDS011;1456;51.840;12.184;2023-04-24T07:30:01;0.63;;;0.50;;
2892;SDS011;1456;51.840;12.184;2023-04-24T07:32:27;3.47;;;1.20;;
2892;SDS011;1456;51.840;12.184;2023-04-24T07:34:53;0.50;;;0.50;;
2892;SDS011;1456;51.840;12.184;2023-04-24T07:37:20;0.50;;;0.50;;
2892;SDS011;1456;51.840;12.184;2023-04-24T07:39:46;0.40;;;0.20;;
2892;SDS011;1456;51.840;12.184;2023-04-24T07:42:13;0.30;;;0.20;;
2892;SDS011;1456;51.840;12.184;2023-04-24T07:44:39;0.30;;;0.20;;
2892;SDS011;1456;51.840;12.184;2023-04-24T07:47:05;0.30;;;0.30;;
2892;SDS011;1456;51.840;12.184;2023-04-24T07:49:32;0.30;;;0.30;;
2892;SDS011;1456;51.840;12.184;2023-04-24T07:52:07;0.60;;;0.40;;
2892;SDS011;1456;51.840;12.184;2023-04-24T07:54:33;0.30;;;0.20;;
2892;SDS011;1456;51.840;12.184;2023-04-24T07:56:59;0.70;;;0.53;;
2892;SDS011;1456;51.840;12.184;2023-04-24T07:59:27;0.40;;;0.30;;
2892;SDS011;1456;51.840;12.184;2023-04-24T08:01:53;0.30;;;0.30;;
2892;SDS011;1456;51.840;12.184;2023-04-24T08:04:22;0.40;;;0.40;;
2892;SDS011;1456;51.840;12.184;2023-04-24T08:06:49;0.30;;;0.30;;
2892;SDS011;1456;51.840;12.184;2023-04-24T08:09:15;0.30;;;0.30;;
2892;SDS011;1456;51.840;12.184;2023-04-24T08:11:42;0.30;;;0.30;;
2892;SDS011;1456;51.840;12.184;2023-04-24T08:14:16;0.33;;;0.33;;
2892;SDS011;1456;51.840;12.184;2023-04-24T08:16:42;0.50;;;0.50;;
2892;SDS011;1456;51.840;12.184;2023-04-24T08:19:08;0.50;;;0.50;;
2892;SDS011;1456;51.840;12.184;2023-04-24T08:21:35;0.30;;;0.30;;
2892;SDS011;1456;51.840;12.184;2023-04-24T08:24:01;0.50;;;0.50;;
2892;SDS011;1456;51.840;12.184;2023-04-24T08:26:30;0.50;;;0.50;;
2892;SDS011;1456;51.840;12.184;2023-04-24T08:28:58;0.40;;;0.40;;
2892;SDS011;1456;51.840;12.184;2023-04-24T08:31:24;0.80;;;0.80;;
2892;SDS011;1456;51.840;12.184;2023-04-24T08:33:52;0.90;;;0.90;;
2892;SDS011;1456;51.840;12.184;2023-04-24T08:36:17;0.80;;;0.80;;
2892;SDS011;1456;51.840;12.184;2023-04-24T08:38:44;0.90;;;0.90;;
2892;SDS011;1456;51.840;12.184;2023-04-24T08:41:12;1.00;;;1.00;;
2892;SDS011;1456;51.840;12.184;2023-04-24T08:43:40;4.67;;;1.87;;
2892;SDS011;1456;51.840;12.184;2023-04-24T08:46:14;1.20;;;1.20;;
2892;SDS011;1456;51.840;12.184;2023-04-24T08:48:41;0.60;;;0.60;;
2892;SDS011;1456;51.840;12.184;2023-04-24T08:51:07;0.97;;;0.97;;
2892;SDS011;1456;51.840;12.184;2023-04-24T08:53:34;1.37;;;1.27;;
2892;SDS011;1456;51.840;12.184;2023-04-24T08:56:06;1.77;;;1.77;;
2892;SDS011;1456;51.840;12.184;2023-04-24T08:58:32;2.53;;;2.53;;
2892;SDS011;1456;51.840;12.184;2023-04-24T09:00:58;2.20;;;2.20;;
2892;SDS011;1456;51.840;12.184;2023-04-24T09:03:29;2.00;;;2.00;;
2892;SDS011;1456;51.840;12.184;2023-04-24T09:05:56;1.50;;;1.50;;
2892;SDS011;1456;51.840;12.184;2023-04-24T09:08:23;1.70;;;1.70;;
2892;SDS011;1456;51.840;12.184;2023-04-24T09:10:51;2.80;;;2.70;;
2892;SDS011;1456;51.840;12.184;2023-04-24T09:13:17;2.47;;;2.47;;
2892;SDS011;1456;51.840;12.184;2023-04-24T09:15:47;2.20;;;2.20;;
2892;SDS011;1456;51.840;12.184;2023-04-24T09:18:12;2.17;;;2.17;;
2892;SDS011;1456;51.840;12.184;2023-04-24T09:23:28;2.27;;;2.27;;
2892;SDS011;1456;51.840;12.184;2023-04-24T09:25:58;2.40;;;2.40;;
2892;SDS011;1456;51.840;12.184;2023-04-24T09:28:26;2.50;;;2.40;;
2892;SDS011;1456;51.840;12.184;2023-04-24T09:31:05;2.77;;;2.77;;
2892;SDS011;1456;51.840;12.184;2023-04-24T09:33:33;3.10;;;3.10;;
2892;SDS011;1456;51.840;12.184;2023-04-24T09:35:59;4.00;;;4.00;;
2892;SDS011;1456;51.840;12.184;2023-04-24T09:41:01;5.13;;;5.03;;
2892;SDS011;1456;51.840;12.184;2023-04-24T09:45:58;5.20;;;5.10;;
2892;SDS011;1456;51.840;12.184;2023-04-24T09:48:35;5.33;;;5.23;;
2892;SDS011;1456;51.840;12.184;2023-04-24T09:51:03;4.73;;;4.73;;
2892;SDS011;1456;51.840;12.184;2023-04-24T09:53:31;4.90;;;4.90;;
2892;SDS011;1456;51.840;12.184;2023-04-24T09:56:07;5.00;;;5.00;;
2892;SDS011;1456;51.840;12.184;2023-04-24T09:58:34;5.43;;;5.43;;
2892;SDS011;1456;51.840;12.184;2023-04-24T10:01:02;5.20;;;5.20;;
2892;SDS011;1456;51.840;12.184;2023-04-24T10:03:31;4.10;;;4.10;;
2892;SDS011;1456;51.840;12.184;2023-04-24T10:06:03;5.10;;;5.10;;
2892;SDS011;1456;51.840;12.184;2023-04-24T10:08:41;5.30;;;5.30;;
2892;SDS011;1456;51.840;12.184;2023-04-24T10:11:08;6.17;;;6.07;;
2892;SDS011;1456;51.840;12.184;2023-04-24T10:13:36;5.40;;;5.40;;
2892;SDS011;1456;51.840;12.184;2023-04-24T10:16:02;5.77;;;5.67;;
2892;SDS011;1456;51.840;12.184;2023-04-24T10:18:29;6.10;;;6.10;;
2892;SDS011;1456;51.840;12.184;2023-04-24T10:20:55;7.03;;;6.93;;
2892;SDS011;1456;51.840;12.184;2023-04-24T10:23:22;6.87;;;6.77;;
2892;SDS011;1456;51.840;12.184;2023-04-24T10:25:50;6.30;;;6.20;;
2892;SDS011;1456;51.840;12.184;2023-04-24T10:28:16;6.40;;;6.40;;
2892;SDS011;1456;51.840;12.184;2023-04-24T10:30:43;7.47;;;7.27;;
2892;SDS011;1456;51.840;12.184;2023-04-24T10:33:11;7.47;;;7.33;;
2892;SDS011;1456;51.840;12.184;2023-04-24T10:35:39;8.30;;;8.20;;
2892;SDS011;1456;51.840;12.184;2023-04-24T10:38:09;7.87;;;7.77;;
2892;SDS011;1456;51.840;12.184;2023-04-24T10:40:41;7.00;;;6.90;;
2892;SDS011;1456;51.840;12.184;2023-04-24T10:43:09;8.03;;;7.93;;
2892;SDS011;1456;51.840;12.184;2023-04-24T10:45:36;13.40;;;13.20;;
2892;SDS011;1456;51.840;12.184;2023-04-24T10:48:09;14.10;;;13.90;;
2892;SDS011;1456;51.840;12.184;2023-04-24T10:50:52;13.50;;;13.30;;
2892;SDS011;1456;51.840;12.184;2023-04-24T10:53:29;14.77;;;14.47;;
2892;SDS011;1456;51.840;12.184;2023-04-24T11:03:56;15.60;;;15.30;;
2892;SDS011;1456;51.840;12.184;2023-04-24T11:06:30;17.70;;;17.30;;
2892;SDS011;1456;51.840;12.184;2023-04-24T11:09:05;18.67;;;18.27;;
2892;SDS011;1456;51.840;12.184;2023-04-24T11:11:35;11.33;;;11.13;;
2892;SDS011;1456;51.840;12.184;2023-04-24T11:14:05;9.90;;;9.80;;
2892;SDS011;1456;51.840;12.184;2023-04-24T11:16:33;21.80;;;21.20;;
2892;SDS011;1456;51.840;12.184;2023-04-24T11:19:20;19.73;;;19.33;;
2892;SDS011;1456;51.840;12.184;2023-04-24T11:29:48;16.00;;;15.70;;
2892;SDS011;1456;51.840;12.184;2023-04-24T11:34:53;19.30;;;18.90;;
2892;SDS011;1456;51.840;12.184;2023-04-24T11:37:22;18.40;;;18.00;;
2892;SDS011;1456;51.840;12.184;2023-04-24T11:39:54;17.77;;;17.47;;
2892;SDS011;1456;51.840;12.184;2023-04-24T11:42:22;20.67;;;20.07;;
2892;SDS011;1456;51.840;12.184;2023-04-24T11:44:49;18.87;;;18.47;;
2892;SDS011;1456;51.840;12.184;2023-04-24T11:47:17;18.93;;;18.53;;
2892;SDS011;1456;51.840;12.184;2023-04-24T11:49:43;10.90;;;10.70;;
2892;SDS011;1456;51.840;12.184;2023-04-24T11:52:10;19.57;;;19.07;;
2892;SDS011;1456;51.840;12.184;2023-04-24T11:54:37;18.50;;;18.10;;
2892;SDS011;1456;51.840;12.184;2023-04-24T11:57:11;18.90;;;18.40;;
2892;SDS011;1456;51.840;12.184;2023-04-24T11:59:39;9.70;;;9.60;;
2892;SDS011;1456;51.840;12.184;2023-04-24T12:02:04;19.20;;;18.80;;
2892;SDS011;1456;51.840;12.184;2023-04-24T12:04:40;19.03;;;18.63;;
2892;SDS011;1456;51.840;12.184;2023-04-24T12:07:06;19.43;;;19.03;;
2892;SDS011;1456;51.840;12.184;2023-04-24T12:09:42;19.80;;;19.40;;
2892;SDS011;1456;51.840;12.184;2023-04-24T12:12:15;10.80;;;10.60;;
2892;SDS011;1456;51.840;12.184;2023-04-24T12:15:15;20.00;;;19.60;;
2892;SDS011;1456;51.840;12.184;2023-04-24T12:17:34;17.87;;;17.47;;
2892;SDS011;1456;51.840;12.184;2023-04-24T12:20:05;20.77;;;20.23;;
2892;SDS011;1456;51.840;12.184;2023-04-24T12:22:51;10.67;;;10.47;;
2892;SDS011;1456;51.840;12.184;2023-04-24T12:25:23;10.47;;;10.37;;
2892;SDS011;1456;51.840;12.184;2023-04-24T12:27:54;20.53;;;20.03;;
2892;SDS011;1456;51.840;12.184;2023-04-24T12:30:30;19.07;;;18.67;;
2892;SDS011;1456;51.840;12.184;2023-04-24T12:32:59;19.23;;;18.83;;
2892;SDS011;1456;51.840;12.184;2023-04-24T12:35:30;17.80;;;17.47;;
2892;SDS011;1456;51.840;12.184;2023-04-24T12:38:13;9.77;;;9.67;;
2892;SDS011;1456;51.840;12.184;2023-04-24T12:40:41;18.63;;;18.23;;
2892;SDS011;1456;51.840;12.184;2023-04-24T12:43:14;18.60;;;18.20;;
2892;SDS011;1456;51.840;12.184;2023-04-24T12:45:44;18.43;;;18.03;;
2892;SDS011;1456;51.840;12.184;2023-04-24T12:48:11;20.40;;;19.90;;
2892;SDS011;1456;51.840;12.184;2023-04-24T12:50:39;19.23;;;18.83;;
2892;SDS011;1456;51.840;12.184;2023-04-24T12:53:05;18.30;;;17.57;;
2892;SDS011;1456;51.840;12.184;2023-04-24T12:55:35;16.93;;;16.63;;
2892;SDS011;1456;51.840;12.184;2023-04-24T12:58:02;17.57;;;17.07;;
2892;SDS011;1456;51.840;12.184;2023-04-24T13:00:28;15.87;;;15.57;;
2892;SDS011;1456;51.840;12.184;2023-04-24T13:02:55;15.83;;;15.53;;
2892;SDS011;1456;51.840;12.184;2023-04-24T13:05:21;8.37;;;8.27;;
2892;SDS011;1456;51.840;12.184;2023-04-24T13:07:47;17.27;;;16.87;;
2892;SDS011;1456;51.840;12.184;2023-04-24T13:10:14;18.80;;;18.40;;
2892;SDS011;1456;51.840;12.184;2023-04-24T13:12:40;19.13;;;18.73;;
2892;SDS011;1456;51.840;12.184;2023-04-24T13:15:06;18.00;;;17.60;;
2892;SDS011;1456;51.840;12.184;2023-04-24T13:17:33;10.20;;;10.10;;
2892;SDS011;1456;51.840;12.184;2023-04-24T13:20:05;10.50;;;10.30;;
2892;SDS011;1456;51.840;12.184;2023-04-24T13:22:31;17.77;;;17.37;;
2892;SDS011;1456;51.840;12.184;2023-04-24T13:24:57;17.20;;;16.87;;
2892;SDS011;1456;51.840;12.184;2023-04-24T13:27:23;17.00;;;16.70;;
2892;SDS011;1456;51.840;12.184;2023-04-24T13:29:49;16.37;;;16.07;;
2892;SDS011;1456;51.840;12.184;2023-04-24T13:32:16;16.80;;;16.50;;
2892;SDS011;1456;51.840;12.184;2023-04-24T13:34:42;16.50;;;16.20;;
2892;SDS011;1456;51.840;12.184;2023-04-24T13:37:08;8.70;;;8.60;;
2892;SDS011;1456;51.840;12.184;2023-04-24T13:39:33;17.00;;;16.70;;
2892;SDS011;1456;51.840;12.184;2023-04-24T13:42:00;15.70;;;15.40;;
2892;SDS011;1456;51.840;12.184;2023-04-24T13:44:25;16.47;;;16.17;;
2892;SDS011;1456;51.840;12.184;2023-04-24T13:46:52;16.10;;;15.70;;
2892;SDS011;1456;51.840;12.184;2023-04-24T13:49:20;14.63;;;14.40;;
2892;SDS011;1456;51.840;12.184;2023-04-24T13:51:48;15.77;;;15.47;;
2892;SDS011;1456;51.840;12.184;2023-04-24T13:54:14;14.97;;;14.57;;
2892;SDS011;1456;51.840;12.184;2023-04-24T13:56:40;14.67;;;14.27;;
2892;SDS011;1456;51.840;12.184;2023-04-24T13:59:08;9.47;;;9.30;;
2892;SDS011;1456;51.840;12.184;2023-04-24T14:01:34;17.83;;;17.33;;
2892;SDS011;1456;51.840;12.184;2023-04-24T14:04:00;15.60;;;15.30;;
2892;SDS011;1456;51.840;12.184;2023-04-24T14:06:27;15.17;;;14.87;;
2892;SDS011;1456;51.840;12.184;2023-04-24T14:08:52;15.30;;;15.10;;
2892;SDS011;1456;51.840;12.184;2023-04-24T14:11:19;12.80;;;12.60;;
2892;SDS011;1456;51.840;12.184;2023-04-24T14:13:46;7.47;;;7.37;;
2892;SDS011;1456;51.840;12.184;2023-04-24T14:16:12;7.80;;;7.70;;
2892;SDS011;1456;51.840;12.184;2023-04-24T14:18:40;15.30;;;15.07;;
2892;SDS011;1456;51.840;12.184;2023-04-24T14:21:06;14.53;;;14.33;;
2892;SDS011;1456;51.840;12.184;2023-04-24T14:23:32;15.97;;;15.67;;
2892;SDS011;1456;51.840;12.184;2023-04-24T14:25:58;16.50;;;16.20;;
2892;SDS011;1456;51.840;12.184;2023-04-24T14:28:25;16.13;;;15.83;;
2892;SDS011;1456;51.840;12.184;2023-04-24T14:30:53;16.70;;;16.40;;
2892;SDS011;1456;51.840;12.184;2023-04-24T14:33:19;17.87;;;17.47;;
2892;SDS011;1456;51.840;12.184;2023-04-24T14:35:45;18.37;;;17.97;;
2892;SDS011;1456;51.840;12.184;2023-04-24T14:38:12;9.70;;;9.60;;
2892;SDS011;1456;51.840;12.184;2023-04-24T14:40:38;19.77;;;19.37;;
2892;SDS011;1456;51.840;12.184;2023-04-24T14:43:04;18.67;;;18.27;;
2892;SDS011;1456;51.840;12.184;2023-04-24T14:45:29;17.60;;;17.30;;
2892;SDS011;1456;51.840;12.184;2023-04-24T14:47:55;9.70;;;9.60;;
2892;SDS011;1456;51.840;12.184;2023-04-24T14:50:22;10.27;;;10.13;;
2892;SDS011;1456;51.840;12.184;2023-04-24T14:52:48;19.30;;;18.90;;
2892;SDS011;1456;51.840;12.184;2023-04-24T14:55:14;18.13;;;17.73;;
2892;SDS011;1456;51.840;12.184;2023-04-24T14:57:40;17.87;;;17.57;;
2892;SDS011;1456;51.840;12.184;2023-04-24T15:00:06;18.43;;;18.03;;
2892;SDS011;1456;51.840;12.184;2023-04-24T15:02:35;18.20;;;17.90;;
2892;SDS011;1456;51.840;12.184;2023-04-24T15:05:04;19.70;;;19.30;;
2892;SDS011;1456;51.840;12.184;2023-04-24T15:07:32;17.27;;;16.97;;
2892;SDS011;1456;51.840;12.184;2023-04-24T15:09:58;9.20;;;9.10;;
2892;SDS011;1456;51.840;12.184;2023-04-24T15:12:24;16.00;;;15.70;;
2892;SDS011;1456;51.840;12.184;2023-04-24T15:14:50;17.20;;;16.80;;
2892;SDS011;1456;51.840;12.184;2023-04-24T15:17:17;15.50;;;15.20;;
2892;SDS011;1456;51.840;12.184;2023-04-24T15:19:43;15.67;;;15.37;;
2892;SDS011;1456;51.840;12.184;2023-04-24T15:22:09;14.63;;;14.43;;
2892;SDS011;1456;51.840;12.184;2023-04-24T15:24:35;15.00;;;14.70;;
2892;SDS011;1456;51.840;12.184;2023-04-24T15:27:02;14.10;;;13.90;;
2892;SDS011;1456;51.840;12.184;2023-04-24T15:29:28;7.40;;;7.30;;
2892;SDS011;1456;51.840;12.184;2023-04-24T15:31:54;6.27;;;6.27;;
2892;SDS011;1456;51.840;12.184;2023-04-24T15:34:20;11.97;;;11.87;;
2892;SDS011;1456;51.840;12.184;2023-04-24T15:36:45;11.00;;;10.90;;
2892;SDS011;1456;51.840;12.184;2023-04-24T15:39:11;10.63;;;10.53;;
2892;SDS011;1456;51.840;12.184;2023-04-24T15:41:38;10.20;;;10.10;;